Time;durP1;ratioP1;P1;durP2;ratioP2;P2;SDS_P1;SDS_P2;PMS_P1;PMS_P2;Temp;Humidity;BMP_temperature;BMP_pressure;BME280_temperature;BME280_humidity;BME280_pressure;Samples;Min_cycle;Max_cycle;Signal;HPM_P1;HPM_P2
2021/12/17 00:00:16;;;;;;;;;;;;;;;;;;5072790;28;20003;-92
2021/12/17 00:03:11;;;;;;;;;;;;;;;;;;5071300;28;19967;-93
2021/12/17 00:05:51;;;;;;;;;;;;;;;;;;5071658;28;19924;-92
2021/12/17 00:08:18;;;;;;;;;;;;;;;;;;5071244;28;20410;-94
2021/12/17 00:10:44;;;;;;;;;;;;;;;;;;5072221;28;20485;-93
2021/12/17 00:13:10;;;;;;;;;;;;;;;;;;5072298;28;20334;-94
2021/12/17 00:15:37;;;;;;;;;;;;;;;;;;5071345;28;19964;-93
2021/12/17 00:18:11;;;;;;;;;;;;;;;;;;5072893;28;19937;-94
2021/12/17 00:40:04;;;;;;;;;;;;;;;;;;5070665;28;19985;-93
2021/12/17 00:40:27;;;;;;;;;;;;;;;;;;5071558;28;19931;-94
2021/12/17 00:48:35;;;;;;;;;;;;;;;;;;5069827;28;19919;-95
2021/12/17 00:53:51;;;;;;;;;;;;;;;;;;5055860;28;19932;-94
2021/12/17 00:56:17;;;;;;;;;;;;;;;;;;5071090;28;19932;-94
2021/12/17 00:58:44;;;;;;;;;;;;;;;;;;5071479;28;19925;-94
2021/12/17 01:01:10;;;;;;;;;;;;;;;;;;5069680;28;19947;-93
2021/12/17 01:03:36;;;;;;;;;;;;;;;;;;5069556;28;19964;-94
2021/12/17 01:06:02;;;;;;;;;;;;;;;;;;5069353;28;20446;-94
2021/12/17 01:08:29;;;;;;;;;;;;;;;;;;5069091;28;20412;-94
2021/12/17 01:10:55;;;;;;;;;;;;;;;;;;5071055;28;20679;-94
2021/12/17 01:13:21;;;;;;;;;;;;;;;;;;5071532;28;20540;-94
2021/12/17 01:15:47;;;;;;;;;;;;;;;;;;5070453;28;20293;-95
2021/12/17 01:18:17;;;;;;;;;;;;;;;;;;5071318;28;19971;-94
2021/12/17 01:21:05;;;;;;;;;;;;;;;;;;5070707;28;19939;-94
2021/12/17 01:37:52;;;;;;;;;;;;;;;;;;5069666;28;19926;-93
2021/12/17 01:42:50;;;;;;;;;;;;;;;;;;5067675;28;20697;-94
2021/12/17 01:45:16;;;;;;;;;;;;;;;;;;5068915;28;19928;-94
2021/12/17 01:47:42;;;;;;;;;;;;;;;;;;5070780;28;19925;-94
2021/12/17 01:56:01;;;;;;;;;;;;;;;;;;5067856;28;19919;-95
2021/12/17 02:01:12;;;;;;;;;;;;;;;;;;5070641;28;20065;-94
2021/12/17 02:03:38;;;;;;;;;;;;;;;;;;5070022;28;20340;-95
2021/12/17 02:06:05;;;;;;;;;;;;;;;;;;5068554;28;19928;-94
2021/12/17 02:08:32;;;;;;;;;;;;;;;;;;5068312;28;20011;-94
2021/12/17 02:19:44;;;;;;;;;;;;;;;;;;5017084;28;19993;-94
2021/12/17 02:33:08;;;;;;;;;;;;;;;;;;5054572;28;20015;-95
2021/12/17 02:35:39;;;;;;;;;;;;;;;;;;5068820;28;19959;-93
2021/12/17 02:38:06;;;;;;;;;;;;;;;;;;5068340;28;19925;-94
2021/12/17 02:46:00;;;;;;;;;;;;;;;;;;5069228;28;19939;-95
2021/12/17 02:48:27;;;;;;;;;;;;;;;;;;5068835;28;20486;-94
2021/12/17 02:50:53;;;;;;;;;;;;;;;;;;5068606;28;20438;-93
2021/12/17 02:53:19;;;;;;;;;;;;;;;;;;5068411;28;19950;-95
2021/12/17 02:55:46;;;;;;;;;;;;;;;;;;5068970;28;20384;-94
2021/12/17 02:58:12;;;;;;;;;;;;;;;;;;5069498;28;20135;-94
2021/12/17 03:00:39;;;;;;;;;;;;;;;;;;5068059;28;19937;-94
2021/12/17 03:03:05;;;;;;;;;;;;;;;;;;5066980;28;19925;-95
2021/12/17 03:05:32;;;;;;;;;;;;;;;;;;5068335;28;20055;-94
2021/12/17 03:07:59;;;;;;;;;;;;;;;;;;5069253;28;19932;-95
2021/12/17 03:10:25;;;;;;;;;;;;;;;;;;5068656;28;19955;-94
2021/12/17 03:12:55;;;;;;;;;;;;;;;;;;5066996;28;19936;-94
2021/12/17 03:15:28;;;;;;;;;;;;;;;;;;5068083;28;19996;-94
2021/12/17 03:23:28;;;;;;;;;;;;;;;;;;5062923;28;19983;-93
2021/12/17 03:25:54;;;;;;;;;;;;;;;;;;5062632;28;19986;-94
2021/12/17 03:28:20;;;;;;;;;;;;;;;;;;5063148;28;19925;-94
2021/12/17 03:30:47;;;;;;;;;;;;;;;;;;5063221;28;19932;-93
2021/12/17 03:33:13;;;;;;;;;;;;;;;;;;5065966;28;19929;-93
2021/12/17 03:35:39;;;;;;;;;;;;;;;;;;5069156;28;19978;-93
2021/12/17 03:38:06;;;;;;;;;;;;;;;;;;5068723;28;19932;-94
2021/12/17 03:40:33;;;;;;;;;;;;;;;;;;5067192;28;19933;-94
2021/12/17 03:43:02;;;;;;;;;;;;;;;;;;5067318;28;19924;-93
2021/12/17 03:45:28;;;;;;;;;;;;;;;;;;5066709;28;19940;-93
2021/12/17 03:47:55;;;;;;;;;;;;;;;;;;5067109;28;20620;-93
2021/12/17 03:50:21;;;;;;;;;;;;;;;;;;5068619;28;20433;-94
2021/12/17 03:52:47;;;;;;;;;;;;;;;;;;5070500;28;19925;-92
2021/12/17 03:55:13;;;;;;;;;;;;;;;;;;5071147;28;19932;-94
2021/12/17 03:57:40;;;;;;;;;;;;;;;;;;5072366;28;19932;-93
2021/12/17 04:00:06;;;;;;;;;;;;;;;;;;5071654;28;19986;-93
2021/12/17 04:02:32;;;;;;;;;;;;;;;;;;5071169;28;19955;-93
2021/12/17 04:04:58;;;;;;;;;;;;;;;;;;5072543;28;19932;-93
2021/12/17 04:07:25;;;;;;;;;;;;;;;;;;5072100;28;19928;-93
2021/12/17 04:09:51;;;;;;;;;;;;;;;;;;5072640;28;19925;-94
2021/12/17 04:12:20;;;;;;;;;;;;;;;;;;5071310;28;20003;-93
2021/12/17 04:14:48;;;;;;;;;;;;;;;;;;5072008;28;19925;-95
2021/12/17 04:17:21;;;;;;;;;;;;;;;;;;5071820;28;19925;-93
2021/12/17 04:19:47;;;;;;;;;;;;;;;;;;5070997;28;19924;-92
2021/12/17 04:22:13;;;;;;;;;;;;;;;;;;5072840;28;19963;-95
2021/12/17 04:24:39;;;;;;;;;;;;;;;;;;5072005;28;19932;-95
2021/12/17 04:27:06;;;;;;;;;;;;;;;;;;5071497;28;19962;-93
2021/12/17 04:29:33;;;;;;;;;;;;;;;;;;5071836;28;19932;-94
2021/12/17 04:31:59;;;;;;;;;;;;;;;;;;5071624;28;19932;-94
2021/12/17 04:34:26;;;;;;;;;;;;;;;;;;5071360;28;19951;-95
2021/12/17 04:36:55;;;;;;;;;;;;;;;;;;5070220;28;19925;-94
2021/12/17 04:39:23;;;;;;;;;;;;;;;;;;5071153;28;19933;-94
2021/12/17 04:41:53;;;;;;;;;;;;;;;;;;5071594;28;19932;-94
2021/12/17 04:44:23;;;;;;;;;;;;;;;;;;5071566;28;19925;-93
2021/12/17 04:46:56;;;;;;;;;;;;;;;;;;5069674;28;19931;-93
2021/12/17 04:57:37;;;;;;;;;;;;;;;;;;5071184;28;19920;-92
2021/12/17 05:00:04;;;;;;;;;;;;;;;;;;5071245;28;19939;-91
2021/12/17 05:02:32;;;;;;;;;;;;;;;;;;5072809;28;19933;-93
2021/12/17 05:05:05;;;;;;;;;;;;;;;;;;5071988;28;19947;-95
2021/12/17 05:07:31;;;;;;;;;;;;;;;;;;5071095;28;19971;-93
2021/12/17 05:10:05;;;;;;;;;;;;;;;;;;5070947;28;19925;-93
2021/12/17 05:20:48;;;;;;;;;;;;;;;;;;5061978;28;20346;-93
2021/12/17 05:23:14;;;;;;;;;;;;;;;;;;5068922;28;19994;-95
2021/12/17 05:25:40;;;;;;;;;;;;;;;;;;5070004;28;19928;-95
2021/12/17 05:28:06;;;;;;;;;;;;;;;;;;5071318;28;19982;-94
2021/12/17 05:30:33;;;;;;;;;;;;;;;;;;5069829;28;19991;-93
2021/12/17 05:33:01;;;;;;;;;;;;;;;;;;5069885;28;19933;-95
2021/12/17 05:35:27;;;;;;;;;;;;;;;;;;5069799;28;19977;-95
2021/12/17 05:37:54;;;;;;;;;;;;;;;;;;5070090;28;19978;-94
2021/12/17 05:40:20;;;;;;;;;;;;;;;;;;5070348;28;19932;-94
2021/12/17 05:42:48;;;;;;;;;;;;;;;;;;5068094;28;19978;-94
2021/12/17 05:45:22;;;;;;;;;;;;;;;;;;5068821;28;19940;-93
2021/12/17 05:47:48;;;;;;;;;;;;;;;;;;5068636;28;19979;-94
2021/12/17 05:50:14;;;;;;;;;;;;;;;;;;5067407;28;19932;-94
2021/12/17 05:52:41;;;;;;;;;;;;;;;;;;5069260;28;19946;-93
2021/12/17 05:55:07;;;;;;;;;;;;;;;;;;5069180;28;19925;-94
2021/12/17 05:57:33;;;;;;;;;;;;;;;;;;5069073;28;19955;-94
2021/12/17 05:59:59;;;;;;;;;;;;;;;;;;5069854;28;19966;-95
2021/12/17 06:02:26;;;;;;;;;;;;;;;;;;5070814;28;19924;-94
2021/12/17 06:04:52;;;;;;;;;;;;;;;;;;5070370;28;19929;-95
2021/12/17 06:07:18;;;;;;;;;;;;;;;;;;5071018;28;19932;-95
2021/12/17 06:09:45;;;;;;;;;;;;;;;;;;5070688;28;19951;-94
2021/12/17 06:12:12;;;;;;;;;;;;;;;;;;5069752;28;19929;-94
2021/12/17 06:14:38;;;;;;;;;;;;;;;;;;5069799;28;19925;-93
2021/12/17 06:17:05;;;;;;;;;;;;;;;;;;5068684;28;19929;-94
2021/12/17 06:19:31;;;;;;;;;;;;;;;;;;5070057;28;19925;-94
2021/12/17 06:21:58;;;;;;;;;;;;;;;;;;5068296;28;19947;-95
2021/12/17 06:24:25;;;;;;;;;;;;;;;;;;5068411;28;19929;-95
2021/12/17 06:26:51;;;;;;;;;;;;;;;;;;5069121;28;19947;-95
2021/12/17 06:29:17;;;;;;;;;;;;;;;;;;5067946;28;19947;-94
2021/12/17 06:31:43;;;;;;;;;;;;;;;;;;5067223;28;20012;-94
2021/12/17 06:34:10;;;;;;;;;;;;;;;;;;5067002;28;20261;-94
2021/12/17 06:36:36;;;;;;;;;;;;;;;;;;5068402;28;19933;-96
2021/12/17 06:39:02;;;;;;;;;;;;;;;;;;5069167;28;19921;-96
2021/12/17 06:41:28;;;;;;;;;;;;;;;;;;5067211;28;19928;-95
2021/12/17 06:43:57;;;;;;;;;;;;;;;;;;5061482;28;19929;-95
2021/12/17 06:46:30;;;;;;;;;;;;;;;;;;5063072;28;19925;-95
2021/12/17 06:49:14;;;;;;;;;;;;;;;;;;5064337;28;19924;-94
2021/12/17 06:54:42;;;;;;;;;;;;;;;;;;5070680;28;19980;-94
2021/12/17 07:35:12;;;;;;;;;;;;;;;;;;6319383;22;19903;-96
2021/12/17 07:40:42;;;;;;;;;;;;;;;;;;6331723;22;19929;-96
2021/12/17 07:43:13;;;;;;;;;;;;;;;;;;6345803;22;19929;-96
2021/12/17 07:45:39;;;;;;;;;;;;;;;;;;6346346;22;19933;-96
2021/12/17 07:53:36;;;;;;;;;;;;;;;;;;6332599;22;19967;-95
2021/12/17 07:56:02;;;;;;;;;;;;;;;;;;6279312;22;19930;-94
2021/12/17 07:58:28;;;;;;;;;;;;;;;;;;6304745;22;20037;-94
2021/12/17 08:11:42;;;;;;;;;;;;;;;;;;6300311;22;19925;-95
2021/12/17 08:14:12;;;;;;;;;;;;;;;;;;6301483;22;19919;-96
2021/12/17 08:16:45;;;;;;;;;;;;;;;;;;6303997;22;19937;-92
2021/12/17 08:27:45;;;;;;;;;;;;;;;;;;6297685;22;19914;-95
2021/12/17 08:30:24;;;;;;;;;;;;;;;;;;6292026;22;19975;-95
2021/12/17 08:32:51;;;;;;;;;;;;;;;;;;6289944;22;19950;-95
2021/12/17 08:35:20;;;;;;;;;;;;;;;;;;6297047;22;19967;-96
2021/12/17 08:37:47;;;;;;;;;;;;;;;;;;6298499;22;19984;-95
2021/12/17 08:40:13;;;;;;;;;;;;;;;;;;6290551;22;19967;-95
2021/12/17 08:42:39;;;;;;;;;;;;;;;;;;6288983;22;19963;-94
2021/12/17 08:45:06;;;;;;;;;;;;;;;;;;6290682;22;19923;-94
2021/12/17 08:47:33;;;;;;;;;;;;;;;;;;6290805;22;19919;-94
2021/12/17 08:50:05;;;;;;;;;;;;;;;;;;6288393;22;19919;-94
2021/12/17 08:52:32;;;;;;;;;;;;;;;;;;6294119;22;19931;-94
2021/12/17 08:54:58;;;;;;;;;;;;;;;;;;6289153;22;19924;-96
2021/12/17 08:57:24;;;;;;;;;;;;;;;;;;6280340;22;20006;-94
2021/12/17 08:59:51;;;;;;;;;;;;;;;;;;6279280;22;19924;-95
2021/12/17 09:02:17;;;;;;;;;;;;;;;;;;6286008;22;19923;-95
2021/12/17 09:04:44;;;;;;;;;;;;;;;;;;6287244;22;19923;-94
2021/12/17 09:07:10;;;;;;;;;;;;;;;;;;6283141;22;19932;-93
2021/12/17 09:09:38;;;;;;;;;;;;;;;;;;6288350;22;19923;-96
2021/12/17 09:12:07;;;;;;;;;;;;;;;;;;6282154;22;19920;-96
2021/12/17 09:14:35;;;;;;;;;;;;;;;;;;6287330;22;19926;-96
2021/12/17 09:17:01;;;;;;;;;;;;;;;;;;6282407;22;19930;-96
2021/12/17 09:19:28;;;;;;;;;;;;;;;;;;6283328;22;19919;-96
2021/12/17 09:22:02;;;;;;;;;;;;;;;;;;6291202;22;19926;-96
2021/12/17 09:24:29;;;;;;;;;;;;;;;;;;6276677;22;19934;-96
2021/12/17 09:26:55;;;;;;;;;;;;;;;;;;6305863;22;19903;-96
2021/12/17 09:29:21;;;;;;;;;;;;;;;;;;6287490;22;19977;-94
2021/12/17 09:31:48;;;;;;;;;;;;;;;;;;6257491;22;19923;-95
2021/12/17 09:34:14;;;;;;;;;;;;;;;;;;6288574;22;19923;-96
2021/12/17 09:41:59;;;;;;;;;;;;;;;;;;6239649;22;20492;-94
2021/12/17 09:44:26;;;;;;;;;;;;;;;;;;6228596;23;19975;-95
2021/12/17 09:46:57;;;;;;;;;;;;;;;;;;6228320;23;19927;-94
2021/12/17 09:49:23;;;;;;;;;;;;;;;;;;6229461;23;19931;-94
2021/12/17 09:54:36;;;;;;;;;;;;;;;;;;6245781;23;19927;-96
2021/12/17 10:02:48;;;;;;;;;;;;;;;;;;6222231;22;20021;-95
2021/12/17 10:05:14;;;;;;;;;;;;;;;;;;6287297;22;19919;-94
2021/12/17 10:07:43;;;;;;;;;;;;;;;;;;6286163;22;19923;-94
2021/12/17 10:10:09;;;;;;;;;;;;;;;;;;6285273;22;19925;-94
2021/12/17 10:12:35;;;;;;;;;;;;;;;;;;6286461;22;19923;-92
2021/12/17 10:15:04;;;;;;;;;;;;;;;;;;6283799;22;19923;-95
2021/12/17 10:17:31;;;;;;;;;;;;;;;;;;6283474;22;19927;-96
2021/12/17 10:19:57;;;;;;;;;;;;;;;;;;6284162;22;19977;-93
2021/12/17 10:22:25;;;;;;;;;;;;;;;;;;6284870;22;19923;-94
2021/12/17 10:24:51;;;;;;;;;;;;;;;;;;6285668;22;20018;-94
2021/12/17 10:27:17;;;;;;;;;;;;;;;;;;6285910;22;19930;-94
2021/12/17 10:29:43;;;;;;;;;;;;;;;;;;6286488;22;19926;-94
2021/12/17 10:32:12;;;;;;;;;;;;;;;;;;6286523;22;19982;-93
2021/12/17 10:34:39;;;;;;;;;;;;;;;;;;6287031;22;19923;-96
2021/12/17 10:37:06;;;;;;;;;;;;;;;;;;6284907;22;19919;-93
2021/12/17 10:39:32;;;;;;;;;;;;;;;;;;6285985;22;19923;-95
2021/12/17 10:41:58;;;;;;;;;;;;;;;;;;6286390;22;19919;-94
2021/12/17 10:44:27;;;;;;;;;;;;;;;;;;6284188;22;19927;-94
2021/12/17 10:47:06;;;;;;;;;;;;;;;;;;6282541;22;19919;-94
2021/12/17 10:49:32;;;;;;;;;;;;;;;;;;6285473;22;19923;-96
2021/12/17 10:51:58;;;;;;;;;;;;;;;;;;6286465;22;20431;-95
2021/12/17 10:54:25;;;;;;;;;;;;;;;;;;6284009;22;19923;-93
2021/12/17 10:56:51;;;;;;;;;;;;;;;;;;6284954;22;19919;-96
2021/12/17 10:59:18;;;;;;;;;;;;;;;;;;6283354;22;19927;-96
2021/12/17 11:01:45;;;;;;;;;;;;;;;;;;6284862;22;19939;-96
2021/12/17 11:04:11;;;;;;;;;;;;;;;;;;6286877;22;19942;-95
2021/12/17 11:06:37;;;;;;;;;;;;;;;;;;6285855;22;20300;-96
2021/12/17 11:09:03;;;;;;;;;;;;;;;;;;6286411;22;19923;-95
2021/12/17 11:11:30;;;;;;;;;;;;;;;;;;6285056;22;19923;-96
2021/12/17 11:13:57;;;;;;;;;;;;;;;;;;6286921;22;19923;-96
2021/12/17 11:16:24;;;;;;;;;;;;;;;;;;6285233;22;19963;-95
2021/12/17 11:18:50;;;;;;;;;;;;;;;;;;6286332;22;19927;-95
2021/12/17 11:21:17;;;;;;;;;;;;;;;;;;6286006;22;19966;-95
2021/12/17 11:23:43;;;;;;;;;;;;;;;;;;6286479;22;19926;-96
2021/12/17 11:26:09;;;;;;;;;;;;;;;;;;6285588;22;20303;-95
2021/12/17 11:28:35;;;;;;;;;;;;;;;;;;6286262;22;19923;-95
2021/12/17 11:31:02;;;;;;;;;;;;;;;;;;6286032;22;19923;-96
2021/12/17 11:33:28;;;;;;;;;;;;;;;;;;6286399;22;19923;-95
2021/12/17 11:35:54;;;;;;;;;;;;;;;;;;6286505;22;19923;-96
2021/12/17 11:38:36;;;;;;;;;;;;;;;;;;6287180;22;19946;-96
2021/12/17 11:41:02;;;;;;;;;;;;;;;;;;6287874;22;20487;-96
2021/12/17 11:43:30;;;;;;;;;;;;;;;;;;6287791;22;19923;-96
2021/12/17 11:45:56;;;;;;;;;;;;;;;;;;6284832;22;19934;-96
2021/12/17 11:48:23;;;;;;;;;;;;;;;;;;6286258;22;19942;-96
2021/12/17 11:50:50;;;;;;;;;;;;;;;;;;6288128;22;19946;-96
2021/12/17 11:53:17;;;;;;;;;;;;;;;;;;6287107;22;19920;-95
2021/12/17 11:55:43;;;;;;;;;;;;;;;;;;6286462;22;19924;-96
2021/12/17 11:58:13;;;;;;;;;;;;;;;;;;6288784;22;19915;-96
2021/12/17 12:00:40;;;;;;;;;;;;;;;;;;6294593;22;19926;-94
2021/12/17 12:03:06;;;;;;;;;;;;;;;;;;6289236;22;19927;-95
2021/12/17 12:05:32;;;;;;;;;;;;;;;;;;6288497;22;19923;-96
2021/12/17 12:07:59;;;;;;;;;;;;;;;;;;6287345;22;19919;-95
2021/12/17 12:10:25;;;;;;;;;;;;;;;;;;6286279;22;19926;-95
2021/12/17 12:12:51;;;;;;;;;;;;;;;;;;6285241;22;19919;-96
2021/12/17 12:15:19;;;;;;;;;;;;;;;;;;6289424;22;19923;-96
2021/12/17 12:32:21;;;;;;;;;;;;;;;;;;5163040;27;20030;-96
2021/12/17 12:34:48;;;;;;;;;;;;;;;;;;5159621;27;19948;-96
2021/12/17 12:37:14;;;;;;;;;;;;;;;;;;5159257;27;19931;-96
2021/12/17 12:39:41;;;;;;;;;;;;;;;;;;5162336;27;19932;-95
2021/12/17 12:42:22;;;;;;;;;;;;;;;;;;5172560;27;19930;-96
2021/12/17 12:44:49;;;;;;;;;;;;;;;;;;5158460;27;19931;-96
2021/12/17 12:47:15;;;;;;;;;;;;;;;;;;5159271;27;19928;-96
2021/12/17 12:49:42;;;;;;;;;;;;;;;;;;5172135;27;19934;-96
2021/12/17 12:52:08;;;;;;;;;;;;;;;;;;5168335;27;19945;-94
2021/12/17 12:54:36;;;;;;;;;;;;;;;;;;5170119;27;19927;-96
2021/12/17 12:57:04;;;;;;;;;;;;;;;;;;5168730;27;19923;-96
2021/12/17 12:59:32;;;;;;;;;;;;;;;;;;5170426;27;19949;-96
2021/12/17 13:02:02;;;;;;;;;;;;;;;;;;5168804;27;19929;-96
2021/12/17 13:04:28;;;;;;;;;;;;;;;;;;5138660;22;19924;-94
2021/12/17 13:06:55;;;;;;;;;;;;;;;;;;5114670;28;19932;-96
2021/12/17 13:09:21;;;;;;;;;;;;;;;;;;5136748;28;19947;-96
2021/12/17 13:11:48;;;;;;;;;;;;;;;;;;5130433;28;19930;-96
2021/12/17 13:14:18;;;;;;;;;;;;;;;;;;5118880;28;19921;-96
2021/12/17 13:17:05;;;;;;;;;;;;;;;;;;5251835;22;19954;-96
2021/12/17 13:22:42;;;;;;;;;;;;;;;;;;5082950;28;20111;-95
2021/12/17 13:25:08;;;;;;;;;;;;;;;;;;5136148;28;19995;-96
2021/12/17 13:27:36;;;;;;;;;;;;;;;;;;5144876;22;19939;-96
2021/12/17 13:30:04;;;;;;;;;;;;;;;;;;5119588;28;19931;-95
2021/12/17 13:48:17;;;;;;;;;;;;;;;;;;5314737;22;20436;-96
2021/12/17 13:50:46;;;;;;;;;;;;;;;;;;5102680;28;19924;-95
2021/12/17 13:53:12;;;;;;;;;;;;;;;;;;5107581;28;19924;-96
2021/12/17 13:55:39;;;;;;;;;;;;;;;;;;5109404;28;19928;-96
2021/12/17 13:58:06;;;;;;;;;;;;;;;;;;5105648;28;19924;-96
2021/12/17 14:00:36;;;;;;;;;;;;;;;;;;5113035;28;19915;-96
2021/12/17 14:03:11;;;;;;;;;;;;;;;;;;5139649;22;19931;-96
2021/12/17 14:11:05;;;;;;;;;;;;;;;;;;5094078;28;19912;-96
2021/12/17 14:16:06;;;;;;;;;;;;;;;;;;5510098;22;19932;-96
2021/12/17 14:21:08;;;;;;;;;;;;;;;;;;5174659;22;19919;-96
2021/12/17 14:28:43;;;;;;;;;;;;;;;;;;5097539;28;19920;-96
2021/12/17 14:31:10;;;;;;;;;;;;;;;;;;5099311;28;19946;-96
2021/12/17 14:33:39;;;;;;;;;;;;;;;;;;5100291;28;19991;-95
2021/12/17 14:46:34;;;;;;;;;;;;;;;;;;5272427;22;19912;-96
2021/12/17 15:04:59;;;;;;;;;;;;;;;;;;5147256;22;19930;-96
2021/12/17 15:07:26;;;;;;;;;;;;;;;;;;5135377;27;19923;-96
2021/12/17 15:09:52;;;;;;;;;;;;;;;;;;5138313;27;19923;-96
2021/12/17 15:28:18;;;;;;;;;;;;;;;;;;5185679;22;19955;-96
2021/12/17 15:30:45;;;;;;;;;;;;;;;;;;5112591;28;19920;-96
2021/12/17 15:33:15;;;;;;;;;;;;;;;;;;5113780;28;19930;-95
2021/12/17 15:35:54;;;;;;;;;;;;;;;;;;5251384;22;20012;-96
2021/12/17 15:38:23;;;;;;;;;;;;;;;;;;5076438;28;19924;-96
2021/12/17 15:40:49;;;;;;;;;;;;;;;;;;5077852;28;19916;-96
2021/12/17 15:43:15;;;;;;;;;;;;;;;;;;5079594;28;19909;-96
2021/12/17 15:45:42;;;;;;;;;;;;;;;;;;5075546;28;19932;-96
2021/12/17 15:48:08;;;;;;;;;;;;;;;;;;5069220;28;19924;-96
2021/12/17 15:50:36;;;;;;;;;;;;;;;;;;5074066;28;19920;-96
2021/12/17 15:58:37;;;;;;;;;;;;;;;;;;5098727;22;19967;-96
2021/12/17 16:06:10;;;;;;;;;;;;;;;;;;5103567;22;19925;-96
2021/12/17 16:17:07;;;;;;;;;;;;;;;;;;5099140;28;19930;-96
2021/12/17 16:22:17;;;;;;;;;;;;;;;;;;5109130;28;19971;-96
2021/12/17 16:24:44;;;;;;;;;;;;;;;;;;5108197;28;19966;-96
2021/12/17 16:27:26;;;;;;;;;;;;;;;;;;5120920;28;19957;-96
2021/12/17 16:29:54;;;;;;;;;;;;;;;;;;5119269;22;19932;-96
2021/12/17 16:32:20;;;;;;;;;;;;;;;;;;5113023;28;19927;-96
2021/12/17 16:34:46;;;;;;;;;;;;;;;;;;5116147;28;19933;-96
2021/12/17 16:37:13;;;;;;;;;;;;;;;;;;5108244;28;19924;-96
2021/12/17 16:39:39;;;;;;;;;;;;;;;;;;5155442;22;19941;-96
2021/12/17 16:42:16;;;;;;;;;;;;;;;;;;5077060;28;20620;-96
2021/12/17 16:45:20;;;;;;;;;;;;;;;;;;5071218;28;20001;-96
2021/12/17 16:47:47;;;;;;;;;;;;;;;;;;5074104;28;19932;-96
2021/12/17 16:50:14;;;;;;;;;;;;;;;;;;5072473;28;19932;-94
2021/12/17 16:52:43;;;;;;;;;;;;;;;;;;5071114;28;19936;-96
2021/12/17 16:55:09;;;;;;;;;;;;;;;;;;5072331;28;19933;-96
2021/12/17 16:57:35;;;;;;;;;;;;;;;;;;5073430;28;19939;-96
2021/12/17 17:00:05;;;;;;;;;;;;;;;;;;5074914;28;19929;-96
2021/12/17 17:02:32;;;;;;;;;;;;;;;;;;5070582;28;19939;-96
2021/12/17 17:04:58;;;;;;;;;;;;;;;;;;5102283;23;19924;-94
2021/12/17 17:07:28;;;;;;;;;;;;;;;;;;5095579;28;19924;-95
2021/12/17 17:09:54;;;;;;;;;;;;;;;;;;5095372;28;19999;-95
2021/12/17 17:12:23;;;;;;;;;;;;;;;;;;5100521;28;19932;-96
2021/12/17 17:14:51;;;;;;;;;;;;;;;;;;5098790;28;19932;-96
2021/12/17 17:17:19;;;;;;;;;;;;;;;;;;5095007;28;19987;-96
2021/12/17 17:19:47;;;;;;;;;;;;;;;;;;5095491;28;19931;-96
2021/12/17 17:22:15;;;;;;;;;;;;;;;;;;5098961;28;19932;-96
2021/12/17 17:24:43;;;;;;;;;;;;;;;;;;5094666;28;19964;-96
2021/12/17 17:27:12;;;;;;;;;;;;;;;;;;5094229;28;19924;-96
2021/12/17 17:29:38;;;;;;;;;;;;;;;;;;5090237;28;20012;-95
2021/12/17 17:32:05;;;;;;;;;;;;;;;;;;5095795;28;20015;-96
2021/12/17 17:34:31;;;;;;;;;;;;;;;;;;5092465;28;20073;-95
2021/12/17 17:36:57;;;;;;;;;;;;;;;;;;5092290;28;19924;-96
2021/12/17 17:39:24;;;;;;;;;;;;;;;;;;5094393;28;19924;-96
2021/12/17 17:41:50;;;;;;;;;;;;;;;;;;5094382;28;19928;-96
2021/12/17 17:44:16;;;;;;;;;;;;;;;;;;5095353;28;19924;-96
2021/12/17 17:46:43;;;;;;;;;;;;;;;;;;5087378;28;19980;-96
2021/12/17 17:49:09;;;;;;;;;;;;;;;;;;5090047;28;20434;-96
2021/12/17 17:51:39;;;;;;;;;;;;;;;;;;5091016;28;19940;-96
2021/12/17 17:54:05;;;;;;;;;;;;;;;;;;5083522;28;19936;-95
2021/12/17 17:56:32;;;;;;;;;;;;;;;;;;5088254;28;19928;-96
2021/12/17 17:58:59;;;;;;;;;;;;;;;;;;5094032;28;19970;-96
2021/12/17 18:01:28;;;;;;;;;;;;;;;;;;5097802;28;19925;-96
2021/12/17 18:04:02;;;;;;;;;;;;;;;;;;5095723;28;19936;-95
2021/12/17 18:06:28;;;;;;;;;;;;;;;;;;5092730;28;19935;-96
2021/12/17 18:08:55;;;;;;;;;;;;;;;;;;5096949;28;19924;-96
2021/12/17 18:11:21;;;;;;;;;;;;;;;;;;5091698;28;20024;-96
2021/12/17 18:13:49;;;;;;;;;;;;;;;;;;5096006;28;19924;-96
2021/12/17 18:16:18;;;;;;;;;;;;;;;;;;5090982;28;19932;-96
2021/12/17 18:18:48;;;;;;;;;;;;;;;;;;5093802;28;19932;-96
2021/12/17 18:21:16;;;;;;;;;;;;;;;;;;5112060;28;19935;-96
2021/12/17 18:23:42;;;;;;;;;;;;;;;;;;5107052;28;19946;-96
2021/12/17 18:26:08;;;;;;;;;;;;;;;;;;5109838;28;19928;-93
2021/12/17 18:28:39;;;;;;;;;;;;;;;;;;5116555;28;19924;-96
2021/12/17 18:31:05;;;;;;;;;;;;;;;;;;5115288;28;19924;-96
2021/12/17 18:33:32;;;;;;;;;;;;;;;;;;5111301;28;20380;-96
2021/12/17 18:35:58;;;;;;;;;;;;;;;;;;5107298;28;20024;-95
2021/12/17 18:38:29;;;;;;;;;;;;;;;;;;5110514;28;20231;-96
2021/12/17 18:41:10;;;;;;;;;;;;;;;;;;5116588;28;19932;-96
2021/12/17 18:44:10;;;;;;;;;;;;;;;;;;5221724;22;19979;-95
2021/12/17 18:46:37;;;;;;;;;;;;;;;;;;5099648;28;19924;-95
2021/12/17 18:49:03;;;;;;;;;;;;;;;;;;5105422;28;19928;-96
2021/12/17 18:51:38;;;;;;;;;;;;;;;;;;5112660;28;19924;-96
2021/12/17 18:54:07;;;;;;;;;;;;;;;;;;5140629;22;19916;-96
2021/12/17 18:56:34;;;;;;;;;;;;;;;;;;5109053;28;19924;-96
2021/12/17 18:59:00;;;;;;;;;;;;;;;;;;5104147;28;19924;-96
2021/12/17 19:04:21;;;;;;;;;;;;;;;;;;5172229;23;19931;-96
2021/12/17 19:06:48;;;;;;;;;;;;;;;;;;5140426;22;19930;-95
2021/12/17 19:09:15;;;;;;;;;;;;;;;;;;5121897;28;19938;-96
2021/12/17 19:14:28;;;;;;;;;;;;;;;;;;5153784;22;19932;-96
2021/12/17 19:16:56;;;;;;;;;;;;;;;;;;5146570;27;19932;-96
2021/12/17 19:22:16;;;;;;;;;;;;;;;;;;5122928;28;19990;-96
2021/12/17 19:24:42;;;;;;;;;;;;;;;;;;5124515;28;19930;-96
2021/12/17 19:27:11;;;;;;;;;;;;;;;;;;5125839;28;19939;-96
2021/12/17 19:29:39;;;;;;;;;;;;;;;;;;5129994;28;19928;-96
2021/12/17 19:32:05;;;;;;;;;;;;;;;;;;5126928;28;19924;-96
2021/12/17 19:34:31;;;;;;;;;;;;;;;;;;5125082;28;19924;-96
2021/12/17 19:36:58;;;;;;;;;;;;;;;;;;5121464;28;19941;-96
2021/12/17 19:39:24;;;;;;;;;;;;;;;;;;5123116;28;19953;-96
2021/12/17 19:41:50;;;;;;;;;;;;;;;;;;5125571;28;20300;-96
2021/12/17 19:44:17;;;;;;;;;;;;;;;;;;5127010;28;19924;-96
2021/12/17 19:46:55;;;;;;;;;;;;;;;;;;5129020;28;19953;-96
2021/12/17 19:52:08;;;;;;;;;;;;;;;;;;5133464;27;19923;-96
2021/12/17 19:54:37;;;;;;;;;;;;;;;;;;5124689;28;19924;-95
2021/12/17 19:57:11;;;;;;;;;;;;;;;;;;5127493;28;20386;-96
2021/12/17 19:59:37;;;;;;;;;;;;;;;;;;5128598;28;19927;-96
2021/12/17 20:02:06;;;;;;;;;;;;;;;;;;5131543;28;19932;-96
2021/12/17 20:04:32;;;;;;;;;;;;;;;;;;5123919;28;19939;-93
2021/12/17 20:06:58;;;;;;;;;;;;;;;;;;5128069;28;19919;-96
2021/12/17 20:09:25;;;;;;;;;;;;;;;;;;5121193;28;19977;-96
2021/12/17 20:11:51;;;;;;;;;;;;;;;;;;5126082;28;19932;-96
2021/12/17 20:14:19;;;;;;;;;;;;;;;;;;5127711;28;19928;-96
2021/12/17 20:16:46;;;;;;;;;;;;;;;;;;5120734;28;19927;-95
2021/12/17 20:19:12;;;;;;;;;;;;;;;;;;5122319;28;19937;-96
2021/12/17 20:21:43;;;;;;;;;;;;;;;;;;5122548;28;19928;-96
2021/12/17 20:24:16;;;;;;;;;;;;;;;;;;5117676;28;19923;-96
2021/12/17 20:26:42;;;;;;;;;;;;;;;;;;5128835;28;19938;-96
2021/12/17 20:29:16;;;;;;;;;;;;;;;;;;5126996;28;19938;-95
2021/12/17 20:31:43;;;;;;;;;;;;;;;;;;5124576;28;19928;-95
2021/12/17 20:34:09;;;;;;;;;;;;;;;;;;5124642;28;19931;-96
2021/12/17 20:36:36;;;;;;;;;;;;;;;;;;5124597;28;19971;-96
2021/12/17 20:39:04;;;;;;;;;;;;;;;;;;5121112;28;19946;-96
2021/12/17 20:41:37;;;;;;;;;;;;;;;;;;5122103;28;19967;-96
2021/12/17 20:44:06;;;;;;;;;;;;;;;;;;5116916;28;19995;-96
2021/12/17 20:46:32;;;;;;;;;;;;;;;;;;5125506;28;20015;-96
2021/12/17 20:48:58;;;;;;;;;;;;;;;;;;5128500;28;19934;-96
2021/12/17 20:51:27;;;;;;;;;;;;;;;;;;5128486;28;19943;-96
2021/12/17 20:53:54;;;;;;;;;;;;;;;;;;5134005;28;19931;-96
2021/12/17 20:59:17;;;;;;;;;;;;;;;;;;5132432;28;19931;-96
2021/12/17 21:04:36;;;;;;;;;;;;;;;;;;5268137;22;19932;-96
2021/12/17 21:07:04;;;;;;;;;;;;;;;;;;5153123;27;19974;-96
2021/12/17 21:12:20;;;;;;;;;;;;;;;;;;5162056;22;19930;-96
2021/12/17 21:14:48;;;;;;;;;;;;;;;;;;5150303;27;19931;-96
2021/12/17 21:17:15;;;;;;;;;;;;;;;;;;5151436;27;19979;-95
2021/12/17 21:19:41;;;;;;;;;;;;;;;;;;5149895;27;19932;-95
2021/12/17 21:22:07;;;;;;;;;;;;;;;;;;5151545;27;19915;-95
2021/12/17 21:24:37;;;;;;;;;;;;;;;;;;5139869;27;19938;-96
2021/12/17 21:27:03;;;;;;;;;;;;;;;;;;5144315;27;19923;-95
2021/12/17 21:29:39;;;;;;;;;;;;;;;;;;5149847;27;19953;-96
2021/12/17 21:32:05;;;;;;;;;;;;;;;;;;5145261;27;19931;-96
2021/12/17 21:34:31;;;;;;;;;;;;;;;;;;5142071;27;19953;-94
2021/12/17 21:36:58;;;;;;;;;;;;;;;;;;5142778;27;19966;-96
2021/12/17 21:39:24;;;;;;;;;;;;;;;;;;5142847;27;20344;-96
2021/12/17 21:41:51;;;;;;;;;;;;;;;;;;5141890;27;19927;-95
2021/12/17 21:44:17;;;;;;;;;;;;;;;;;;5142171;27;19931;-96
2021/12/17 21:46:43;;;;;;;;;;;;;;;;;;5144667;27;19953;-96
2021/12/17 21:49:10;;;;;;;;;;;;;;;;;;5145501;27;20563;-96
2021/12/17 21:51:36;;;;;;;;;;;;;;;;;;5143906;27;19945;-96
2021/12/17 21:54:03;;;;;;;;;;;;;;;;;;5144235;27;19923;-95
2021/12/17 21:56:30;;;;;;;;;;;;;;;;;;5143415;27;19953;-96
2021/12/17 21:58:57;;;;;;;;;;;;;;;;;;5144486;27;19960;-96
2021/12/17 22:01:23;;;;;;;;;;;;;;;;;;5144055;27;19931;-96
2021/12/17 22:03:50;;;;;;;;;;;;;;;;;;5145705;27;19931;-96